メインページ
METAR-TAF:

METAR-TAF

空港 :

フリント, ミシガン州, アメリカ合衆国

緯度: 42-58-00N, 経度: 083-44-58W, 海抜: 238m

現時点の気象観測

当レポートは26分前の04:53(UTC)に作成
無風
気温 6°C
湿度 61%
気圧 1018 hPa
視程: 16.1km
晴天

METAR: KFNT 040453Z 00000KT 10SM CLR 06/M01 A3005 RMK AO2 SLP178 T00561006 401561006

時間: 01:19 (05:19 UTC)

予報

当レポートは5時間53分前の23:26(UTC)に作成
予報は04日の 00時(UTC)から 04日の 24時(UTC)まで有効
北/北東の風 5kt
視程: 10km
晴天
04日の 1600時(UTC)から
南/南東の風 5kt
視程: 10km
高度7000ftの千切れ雲あり
04日の 2000時(UTC)から
南西の風 6kt
視程: 10km
高度5000ftの曇り
04日の 2300時(UTC)から
西/南西の風 6kt
視程: 10km
高度2000ftの曇り

TAF: KFNT 032326Z 0400/0424 02005KT P6SM SKC FM041600 16005KT P6SM BKN070 FM042000 23006KT P6SM OVC050 FM042300 24006KT P6SM OVC020

4,000以上の空港の気象観測と天気予報(METAR報とTAF報)

利用可能な観測所は地図上に黄色い丸と赤い丸で示す。

丸の上にカーソルを重ねると観測所名を参照できる。

次にクリックすると気象観測と天気予報を参照できる。

マップの切り替え:黒色「×」印の緑ボタンをクリックして拡大、「-」印の緑ボタンをクリックして縮小、緑色の三角印をクリックして隣りの地図に切り替え


METAR-TAF: